sensor_id;sensor_type;location;lat;lon;timestamp;P1;durP1;ratioP1;P2;durP2;ratioP2
18610;SDS011;9435;52.122;5.502;2023-10-13T00:01:53;41.92;;;19.20;;
18610;SDS011;9435;52.122;5.502;2023-10-13T00:04:20;43.70;;;19.05;;
18610;SDS011;9435;52.122;5.502;2023-10-13T00:06:51;42.13;;;18.38;;
18610;SDS011;9435;52.122;5.502;2023-10-13T00:09:19;39.75;;;18.52;;
18610;SDS011;9435;52.122;5.502;2023-10-13T00:11:50;37.63;;;17.52;;
18610;SDS011;9435;52.122;5.502;2023-10-13T00:14:19;40.70;;;18.70;;
18610;SDS011;9435;52.122;5.502;2023-10-13T00:16:47;43.92;;;18.58;;
18610;SDS011;9435;52.122;5.502;2023-10-13T00:19:28;38.60;;;17.98;;
18610;SDS011;9435;52.122;5.502;2023-10-13T00:22:04;40.03;;;18.55;;
18610;SDS011;9435;52.122;5.502;2023-10-13T00:24:35;36.42;;;17.77;;
18610;SDS011;9435;52.122;5.502;2023-10-13T00:27:10;40.40;;;17.98;;
18610;SDS011;9435;52.122;5.502;2023-10-13T00:29:54;38.33;;;18.45;;
18610;SDS011;9435;52.122;5.502;2023-10-13T00:32:41;37.03;;;18.13;;
18610;SDS011;9435;52.122;5.502;2023-10-13T00:35:10;50.35;;;18.45;;
18610;SDS011;9435;52.122;5.502;2023-10-13T00:37:42;38.30;;;18.10;;
18610;SDS011;9435;52.122;5.502;2023-10-13T00:40:10;38.65;;;17.92;;
18610;SDS011;9435;52.122;5.502;2023-10-13T00:43:03;38.85;;;17.52;;
18610;SDS011;9435;52.122;5.502;2023-10-13T00:45:53;39.58;;;18.17;;
18610;SDS011;9435;52.122;5.502;2023-10-13T00:48:20;39.47;;;17.83;;
18610;SDS011;9435;52.122;5.502;2023-10-13T00:50:49;42.45;;;18.45;;
18610;SDS011;9435;52.122;5.502;2023-10-13T00:53:17;41.30;;;18.08;;
18610;SDS011;9435;52.122;5.502;2023-10-13T00:55:46;36.13;;;17.63;;
18610;SDS011;9435;52.122;5.502;2023-10-13T00:58:12;38.25;;;18.42;;
18610;SDS011;9435;52.122;5.502;2023-10-13T01:00:47;48.47;;;19.05;;
18610;SDS011;9435;52.122;5.502;2023-10-13T01:03:21;41.70;;;18.90;;
18610;SDS011;9435;52.122;5.502;2023-10-13T01:05:52;45.30;;;19.30;;
18610;SDS011;9435;52.122;5.502;2023-10-13T01:08:31;42.20;;;19.00;;
18610;SDS011;9435;52.122;5.502;2023-10-13T01:11:03;42.70;;;20.55;;
18610;SDS011;9435;52.122;5.502;2023-10-13T01:13:32;44.35;;;20.85;;
18610;SDS011;9435;52.122;5.502;2023-10-13T01:16:01;47.75;;;21.77;;
18610;SDS011;9435;52.122;5.502;2023-10-13T01:18:28;45.42;;;21.73;;
18610;SDS011;9435;52.122;5.502;2023-10-13T01:20:55;45.40;;;22.75;;
18610;SDS011;9435;52.122;5.502;2023-10-13T01:23:25;43.58;;;21.80;;
18610;SDS011;9435;52.122;5.502;2023-10-13T01:25:53;41.58;;;21.13;;
18610;SDS011;9435;52.122;5.502;2023-10-13T01:28:21;40.15;;;20.92;;
18610;SDS011;9435;52.122;5.502;2023-10-13T01:30:49;46.20;;;22.45;;
18610;SDS011;9435;52.122;5.502;2023-10-13T01:33:15;46.75;;;22.58;;
18610;SDS011;9435;52.122;5.502;2023-10-13T01:35:51;42.00;;;21.70;;
18610;SDS011;9435;52.122;5.502;2023-10-13T01:38:18;44.75;;;21.77;;
18610;SDS011;9435;52.122;5.502;2023-10-13T01:40:47;46.63;;;22.10;;
18610;SDS011;9435;52.122;5.502;2023-10-13T01:43:16;43.63;;;22.35;;
18610;SDS011;9435;52.122;5.502;2023-10-13T01:45:43;42.47;;;21.23;;
18610;SDS011;9435;52.122;5.502;2023-10-13T01:48:14;42.17;;;21.67;;
18610;SDS011;9435;52.122;5.502;2023-10-13T01:50:43;46.92;;;22.00;;
18610;SDS011;9435;52.122;5.502;2023-10-13T01:53:13;40.53;;;20.52;;
18610;SDS011;9435;52.122;5.502;2023-10-13T01:55:43;38.80;;;20.80;;
18610;SDS011;9435;52.122;5.502;2023-10-13T01:58:11;40.55;;;20.63;;
18610;SDS011;9435;52.122;5.502;2023-10-13T02:00:41;44.13;;;20.88;;
18610;SDS011;9435;52.122;5.502;2023-10-13T02:03:08;39.72;;;20.67;;
18610;SDS011;9435;52.122;5.502;2023-10-13T02:05:41;35.08;;;18.48;;
18610;SDS011;9435;52.122;5.502;2023-10-13T02:08:12;32.03;;;17.83;;
18610;SDS011;9435;52.122;5.502;2023-10-13T02:10:44;36.20;;;17.88;;
18610;SDS011;9435;52.122;5.502;2023-10-13T02:13:14;32.90;;;17.67;;
18610;SDS011;9435;52.122;5.502;2023-10-13T02:15:43;34.33;;;17.65;;
18610;SDS011;9435;52.122;5.502;2023-10-13T02:18:10;34.65;;;17.80;;
18610;SDS011;9435;52.122;5.502;2023-10-13T02:20:39;31.95;;;17.23;;
18610;SDS011;9435;52.122;5.502;2023-10-13T02:23:10;40.92;;;17.77;;
18610;SDS011;9435;52.122;5.502;2023-10-13T02:25:38;35.63;;;17.90;;
18610;SDS011;9435;52.122;5.502;2023-10-13T02:28:11;35.65;;;17.98;;
18610;SDS011;9435;52.122;5.502;2023-10-13T02:30:42;34.85;;;17.58;;
18610;SDS011;9435;52.122;5.502;2023-10-13T02:33:13;29.90;;;17.25;;
18610;SDS011;9435;52.122;5.502;2023-10-13T02:35:46;33.53;;;16.95;;
18610;SDS011;9435;52.122;5.502;2023-10-13T02:38:18;35.50;;;17.13;;
18610;SDS011;9435;52.122;5.502;2023-10-13T02:40:53;31.40;;;16.88;;
18610;SDS011;9435;52.122;5.502;2023-10-13T02:43:20;29.35;;;16.70;;
18610;SDS011;9435;52.122;5.502;2023-10-13T02:45:55;30.73;;;16.60;;
18610;SDS011;9435;52.122;5.502;2023-10-13T02:48:25;32.88;;;16.80;;
18610;SDS011;9435;52.122;5.502;2023-10-13T02:50:56;28.40;;;16.00;;
18610;SDS011;9435;52.122;5.502;2023-10-13T02:53:27;29.60;;;16.15;;
18610;SDS011;9435;52.122;5.502;2023-10-13T02:55:55;34.38;;;16.05;;
18610;SDS011;9435;52.122;5.502;2023-10-13T02:58:29;30.60;;;15.80;;
18610;SDS011;9435;52.122;5.502;2023-10-13T03:01:06;28.92;;;15.63;;
18610;SDS011;9435;52.122;5.502;2023-10-13T03:03:43;30.98;;;15.70;;
18610;SDS011;9435;52.122;5.502;2023-10-13T03:06:19;28.50;;;15.15;;
18610;SDS011;9435;52.122;5.502;2023-10-13T03:08:49;29.10;;;14.82;;
18610;SDS011;9435;52.122;5.502;2023-10-13T03:11:16;28.05;;;14.80;;
18610;SDS011;9435;52.122;5.502;2023-10-13T03:13:47;31.48;;;15.13;;
18610;SDS011;9435;52.122;5.502;2023-10-13T03:16:19;24.70;;;13.70;;
18610;SDS011;9435;52.122;5.502;2023-10-13T03:18:46;31.00;;;14.23;;
18610;SDS011;9435;52.122;5.502;2023-10-13T03:21:21;25.02;;;13.32;;
18610;SDS011;9435;52.122;5.502;2023-10-13T03:23:56;28.83;;;14.32;;
18610;SDS011;9435;52.122;5.502;2023-10-13T03:26:29;24.45;;;13.98;;
18610;SDS011;9435;52.122;5.502;2023-10-13T03:29:01;27.92;;;13.50;;
18610;SDS011;9435;52.122;5.502;2023-10-13T03:31:31;24.38;;;12.63;;
18610;SDS011;9435;52.122;5.502;2023-10-13T03:34:02;24.70;;;12.07;;
18610;SDS011;9435;52.122;5.502;2023-10-13T03:36:36;23.98;;;12.32;;
18610;SDS011;9435;52.122;5.502;2023-10-13T03:39:23;22.10;;;11.82;;
18610;SDS011;9435;52.122;5.502;2023-10-13T03:41:57;23.55;;;11.95;;
18610;SDS011;9435;52.122;5.502;2023-10-13T03:44:24;25.10;;;11.48;;
18610;SDS011;9435;52.122;5.502;2023-10-13T03:46:58;24.13;;;11.40;;
18610;SDS011;9435;52.122;5.502;2023-10-13T03:49:43;23.92;;;11.40;;
18610;SDS011;9435;52.122;5.502;2023-10-13T03:52:10;23.55;;;11.38;;
18610;SDS011;9435;52.122;5.502;2023-10-13T03:54:39;21.27;;;10.68;;
18610;SDS011;9435;52.122;5.502;2023-10-13T03:57:06;21.58;;;11.32;;
18610;SDS011;9435;52.122;5.502;2023-10-13T03:59:36;25.30;;;11.07;;
18610;SDS011;9435;52.122;5.502;2023-10-13T04:02:07;22.23;;;11.00;;
18610;SDS011;9435;52.122;5.502;2023-10-13T04:04:43;19.98;;;10.55;;
18610;SDS011;9435;52.122;5.502;2023-10-13T04:07:14;21.50;;;11.00;;
18610;SDS011;9435;52.122;5.502;2023-10-13T04:09:55;22.95;;;11.15;;
18610;SDS011;9435;52.122;5.502;2023-10-13T04:12:40;23.27;;;12.50;;
18610;SDS011;9435;52.122;5.502;2023-10-13T04:15:24;20.60;;;11.85;;
18610;SDS011;9435;52.122;5.502;2023-10-13T04:18:03;20.63;;;12.43;;
18610;SDS011;9435;52.122;5.502;2023-10-13T04:20:43;23.17;;;12.25;;
18610;SDS011;9435;52.122;5.502;2023-10-13T04:23:11;25.15;;;12.30;;
18610;SDS011;9435;52.122;5.502;2023-10-13T04:25:47;20.33;;;12.10;;
18610;SDS011;9435;52.122;5.502;2023-10-13T04:28:46;23.52;;;12.38;;
18610;SDS011;9435;52.122;5.502;2023-10-13T04:31:18;25.23;;;12.15;;
18610;SDS011;9435;52.122;5.502;2023-10-13T04:34:19;24.70;;;12.75;;
18610;SDS011;9435;52.122;5.502;2023-10-13T04:36:53;24.98;;;12.80;;
18610;SDS011;9435;52.122;5.502;2023-10-13T04:39:36;20.85;;;11.82;;
18610;SDS011;9435;52.122;5.502;2023-10-13T04:42:07;24.45;;;12.75;;
18610;SDS011;9435;52.122;5.502;2023-10-13T04:44:51;18.40;;;11.82;;
18610;SDS011;9435;52.122;5.502;2023-10-13T04:47:26;20.92;;;12.27;;
18610;SDS011;9435;52.122;5.502;2023-10-13T04:49:56;22.33;;;12.10;;
18610;SDS011;9435;52.122;5.502;2023-10-13T04:52:25;22.63;;;11.57;;
18610;SDS011;9435;52.122;5.502;2023-10-13T04:55:16;22.58;;;11.88;;
18610;SDS011;9435;52.122;5.502;2023-10-13T04:57:57;21.83;;;11.98;;
18610;SDS011;9435;52.122;5.502;2023-10-13T05:00:35;19.55;;;11.32;;
18610;SDS011;9435;52.122;5.502;2023-10-13T05:03:42;19.27;;;10.88;;
18610;SDS011;9435;52.122;5.502;2023-10-13T05:06:29;19.45;;;10.48;;
18610;SDS011;9435;52.122;5.502;2023-10-13T05:09:19;19.02;;;10.52;;
18610;SDS011;9435;52.122;5.502;2023-10-13T05:12:03;18.23;;;10.05;;
18610;SDS011;9435;52.122;5.502;2023-10-13T05:14:48;16.45;;;9.80;;
18610;SDS011;9435;52.122;5.502;2023-10-13T05:17:32;17.42;;;9.95;;
18610;SDS011;9435;52.122;5.502;2023-10-13T05:20:17;22.77;;;11.77;;
18610;SDS011;9435;52.122;5.502;2023-10-13T05:23:03;25.30;;;13.07;;
18610;SDS011;9435;52.122;5.502;2023-10-13T05:25:47;24.42;;;13.57;;
18610;SDS011;9435;52.122;5.502;2023-10-13T05:28:31;25.50;;;14.20;;
18610;SDS011;9435;52.122;5.502;2023-10-13T05:31:16;28.70;;;15.18;;
18610;SDS011;9435;52.122;5.502;2023-10-13T05:34:00;29.55;;;15.43;;
18610;SDS011;9435;52.122;5.502;2023-10-13T05:36:45;31.25;;;16.13;;
18610;SDS011;9435;52.122;5.502;2023-10-13T05:39:32;34.15;;;15.93;;
18610;SDS011;9435;52.122;5.502;2023-10-13T05:42:16;29.13;;;15.82;;
18610;SDS011;9435;52.122;5.502;2023-10-13T05:45:01;26.88;;;13.93;;
18610;SDS011;9435;52.122;5.502;2023-10-13T05:47:45;28.08;;;13.23;;
18610;SDS011;9435;52.122;5.502;2023-10-13T05:50:27;26.20;;;12.68;;
18610;SDS011;9435;52.122;5.502;2023-10-13T05:53:11;24.65;;;12.43;;
18610;SDS011;9435;52.122;5.502;2023-10-13T05:56:01;26.17;;;11.95;;
18610;SDS011;9435;52.122;5.502;2023-10-13T05:58:45;28.42;;;11.82;;
18610;SDS011;9435;52.122;5.502;2023-10-13T06:01:30;26.83;;;11.82;;
18610;SDS011;9435;52.122;5.502;2023-10-13T06:04:14;22.40;;;11.57;;
18610;SDS011;9435;52.122;5.502;2023-10-13T06:06:59;22.30;;;10.65;;
18610;SDS011;9435;52.122;5.502;2023-10-13T06:09:43;21.45;;;10.23;;
18610;SDS011;9435;52.122;5.502;2023-10-13T06:12:29;22.33;;;10.05;;
18610;SDS011;9435;52.122;5.502;2023-10-13T06:15:13;20.05;;;10.00;;
18610;SDS011;9435;52.122;5.502;2023-10-13T06:17:58;25.67;;;11.20;;
18610;SDS011;9435;52.122;5.502;2023-10-13T06:20:42;24.38;;;11.73;;
18610;SDS011;9435;52.122;5.502;2023-10-13T06:23:27;25.52;;;11.93;;
18610;SDS011;9435;52.122;5.502;2023-10-13T06:26:11;23.60;;;11.65;;
18610;SDS011;9435;52.122;5.502;2023-10-13T06:28:57;22.55;;;12.30;;
18610;SDS011;9435;52.122;5.502;2023-10-13T06:31:24;27.92;;;13.27;;
18610;SDS011;9435;52.122;5.502;2023-10-13T06:33:51;28.73;;;13.45;;
18610;SDS011;9435;52.122;5.502;2023-10-13T06:36:20;31.40;;;13.15;;
18610;SDS011;9435;52.122;5.502;2023-10-13T06:38:47;24.80;;;12.50;;
18610;SDS011;9435;52.122;5.502;2023-10-13T06:41:20;25.85;;;13.23;;
18610;SDS011;9435;52.122;5.502;2023-10-13T06:43:55;25.98;;;13.88;;
18610;SDS011;9435;52.122;5.502;2023-10-13T06:46:30;27.15;;;13.57;;
18610;SDS011;9435;52.122;5.502;2023-10-13T06:48:59;25.13;;;14.38;;
18610;SDS011;9435;52.122;5.502;2023-10-13T06:51:27;30.10;;;14.05;;
18610;SDS011;9435;52.122;5.502;2023-10-13T06:54:03;26.17;;;14.60;;
18610;SDS011;9435;52.122;5.502;2023-10-13T06:56:35;25.63;;;14.30;;
18610;SDS011;9435;52.122;5.502;2023-10-13T06:59:06;24.35;;;14.32;;
18610;SDS011;9435;52.122;5.502;2023-10-13T07:01:33;29.15;;;16.20;;
18610;SDS011;9435;52.122;5.502;2023-10-13T07:04:05;29.30;;;16.48;;
18610;SDS011;9435;52.122;5.502;2023-10-13T07:06:38;29.95;;;16.67;;
18610;SDS011;9435;52.122;5.502;2023-10-13T07:09:09;31.27;;;16.58;;
18610;SDS011;9435;52.122;5.502;2023-10-13T07:11:54;30.17;;;16.48;;
18610;SDS011;9435;52.122;5.502;2023-10-13T07:14:27;29.23;;;17.27;;
18610;SDS011;9435;52.122;5.502;2023-10-13T07:16:55;32.42;;;17.77;;
18610;SDS011;9435;52.122;5.502;2023-10-13T07:19:24;31.08;;;17.30;;
18610;SDS011;9435;52.122;5.502;2023-10-13T07:21:53;31.17;;;17.48;;
18610;SDS011;9435;52.122;5.502;2023-10-13T07:24:24;30.63;;;16.85;;
18610;SDS011;9435;52.122;5.502;2023-10-13T07:26:52;29.48;;;16.98;;
18610;SDS011;9435;52.122;5.502;2023-10-13T07:29:29;26.45;;;15.25;;
18610;SDS011;9435;52.122;5.502;2023-10-13T07:31:59;29.25;;;15.15;;
18610;SDS011;9435;52.122;5.502;2023-10-13T07:34:27;29.00;;;15.40;;
18610;SDS011;9435;52.122;5.502;2023-10-13T07:36:57;30.45;;;15.27;;
18610;SDS011;9435;52.122;5.502;2023-10-13T07:39:25;30.83;;;14.60;;
18610;SDS011;9435;52.122;5.502;2023-10-13T07:41:59;30.63;;;13.68;;
18610;SDS011;9435;52.122;5.502;2023-10-13T07:44:35;23.52;;;12.82;;
18610;SDS011;9435;52.122;5.502;2023-10-13T07:47:11;27.13;;;13.00;;
18610;SDS011;9435;52.122;5.502;2023-10-13T07:49:39;35.00;;;14.05;;
18610;SDS011;9435;52.122;5.502;2023-10-13T07:52:07;27.75;;;13.13;;
18610;SDS011;9435;52.122;5.502;2023-10-13T07:55:01;27.08;;;12.10;;
18610;SDS011;9435;52.122;5.502;2023-10-13T07:57:37;26.95;;;12.55;;
18610;SDS011;9435;52.122;5.502;2023-10-13T08:00:20;28.20;;;12.88;;
18610;SDS011;9435;52.122;5.502;2023-10-13T08:03:11;26.42;;;12.35;;
18610;SDS011;9435;52.122;5.502;2023-10-13T08:05:56;27.00;;;12.57;;
18610;SDS011;9435;52.122;5.502;2023-10-13T08:08:23;26.10;;;12.30;;
18610;SDS011;9435;52.122;5.502;2023-10-13T08:11:00;24.50;;;12.07;;
18610;SDS011;9435;52.122;5.502;2023-10-13T08:13:33;26.73;;;12.18;;
18610;SDS011;9435;52.122;5.502;2023-10-13T08:16:04;24.25;;;11.77;;
18610;SDS011;9435;52.122;5.502;2023-10-13T08:18:34;30.75;;;12.10;;
18610;SDS011;9435;52.122;5.502;2023-10-13T08:21:06;21.80;;;11.50;;
18610;SDS011;9435;52.122;5.502;2023-10-13T08:23:41;27.00;;;10.98;;
18610;SDS011;9435;52.122;5.502;2023-10-13T08:26:25;32.28;;;11.10;;
18610;SDS011;9435;52.122;5.502;2023-10-13T08:29:10;21.42;;;10.32;;
18610;SDS011;9435;52.122;5.502;2023-10-13T08:31:56;23.95;;;10.70;;
18610;SDS011;9435;52.122;5.502;2023-10-13T08:35:00;20.75;;;9.63;;
18610;SDS011;9435;52.122;5.502;2023-10-13T08:37:41;22.38;;;10.13;;
18610;SDS011;9435;52.122;5.502;2023-10-13T08:40:22;23.95;;;9.50;;
18610;SDS011;9435;52.122;5.502;2023-10-13T08:43:03;22.70;;;9.43;;
18610;SDS011;9435;52.122;5.502;2023-10-13T08:45:37;18.40;;;8.50;;
18610;SDS011;9435;52.122;5.502;2023-10-13T08:48:25;24.33;;;8.77;;
18610;SDS011;9435;52.122;5.502;2023-10-13T08:50:57;22.30;;;8.52;;
18610;SDS011;9435;52.122;5.502;2023-10-13T08:53:40;21.00;;;8.75;;
18610;SDS011;9435;52.122;5.502;2023-10-13T08:56:17;21.45;;;8.07;;
18610;SDS011;9435;52.122;5.502;2023-10-13T08:58:57;25.42;;;8.60;;
18610;SDS011;9435;52.122;5.502;2023-10-13T09:01:35;24.17;;;8.05;;
18610;SDS011;9435;52.122;5.502;2023-10-13T09:04:12;20.90;;;7.82;;
18610;SDS011;9435;52.122;5.502;2023-10-13T09:06:57;23.38;;;8.15;;
18610;SDS011;9435;52.122;5.502;2023-10-13T09:09:44;18.98;;;7.53;;
18610;SDS011;9435;52.122;5.502;2023-10-13T09:12:36;20.65;;;7.60;;
18610;SDS011;9435;52.122;5.502;2023-10-13T09:15:05;21.83;;;7.78;;
18610;SDS011;9435;52.122;5.502;2023-10-13T09:17:43;23.33;;;7.53;;
18610;SDS011;9435;52.122;5.502;2023-10-13T09:20:15;19.77;;;7.63;;
18610;SDS011;9435;52.122;5.502;2023-10-13T09:22:58;23.85;;;8.25;;
18610;SDS011;9435;52.122;5.502;2023-10-13T09:25:34;23.73;;;8.38;;
18610;SDS011;9435;52.122;5.502;2023-10-13T09:28:02;19.08;;;7.80;;
18610;SDS011;9435;52.122;5.502;2023-10-13T09:30:42;18.38;;;7.32;;
18610;SDS011;9435;52.122;5.502;2023-10-13T09:33:09;19.98;;;7.90;;
18610;SDS011;9435;52.122;5.502;2023-10-13T09:35:43;22.10;;;8.15;;
18610;SDS011;9435;52.122;5.502;2023-10-13T09:38:14;22.48;;;8.23;;
18610;SDS011;9435;52.122;5.502;2023-10-13T09:40:40;20.40;;;7.65;;
18610;SDS011;9435;52.122;5.502;2023-10-13T09:43:16;21.40;;;7.20;;
18610;SDS011;9435;52.122;5.502;2023-10-13T09:45:43;21.38;;;8.02;;
18610;SDS011;9435;52.122;5.502;2023-10-13T09:48:29;22.05;;;7.70;;
18610;SDS011;9435;52.122;5.502;2023-10-13T09:51:01;18.83;;;7.68;;
18610;SDS011;9435;52.122;5.502;2023-10-13T09:53:29;16.20;;;7.00;;
18610;SDS011;9435;52.122;5.502;2023-10-13T09:55:59;18.17;;;7.45;;
18610;SDS011;9435;52.122;5.502;2023-10-13T09:58:38;20.35;;;7.13;;
18610;SDS011;9435;52.122;5.502;2023-10-13T10:01:23;22.30;;;7.63;;
18610;SDS011;9435;52.122;5.502;2023-10-13T10:04:06;20.27;;;7.60;;
18610;SDS011;9435;52.122;5.502;2023-10-13T10:06:36;21.08;;;7.72;;
18610;SDS011;9435;52.122;5.502;2023-10-13T10:09:09;23.98;;;7.45;;
18610;SDS011;9435;52.122;5.502;2023-10-13T10:11:58;24.45;;;7.50;;
18610;SDS011;9435;52.122;5.502;2023-10-13T10:14:44;23.73;;;8.20;;
18610;SDS011;9435;52.122;5.502;2023-10-13T10:17:24;17.63;;;7.35;;
18610;SDS011;9435;52.122;5.502;2023-10-13T10:19:55;16.95;;;7.50;;
18610;SDS011;9435;52.122;5.502;2023-10-13T10:22:27;20.98;;;7.50;;
18610;SDS011;9435;52.122;5.502;2023-10-13T10:24:56;17.55;;;7.38;;
18610;SDS011;9435;52.122;5.502;2023-10-13T10:27:24;19.15;;;7.13;;
18610;SDS011;9435;52.122;5.502;2023-10-13T10:29:55;19.33;;;7.30;;
18610;SDS011;9435;52.122;5.502;2023-10-13T10:32:31;19.33;;;7.60;;
18610;SDS011;9435;52.122;5.502;2023-10-13T10:35:03;21.83;;;7.38;;
18610;SDS011;9435;52.122;5.502;2023-10-13T10:37:41;19.33;;;7.97;;
18610;SDS011;9435;52.122;5.502;2023-10-13T10:40:13;19.90;;;7.60;;
18610;SDS011;9435;52.122;5.502;2023-10-13T10:42:58;22.30;;;7.50;;
18610;SDS011;9435;52.122;5.502;2023-10-13T10:45:26;20.35;;;7.32;;
18610;SDS011;9435;52.122;5.502;2023-10-13T10:47:58;20.13;;;7.38;;
18610;SDS011;9435;52.122;5.502;2023-10-13T10:50:26;20.95;;;7.32;;
18610;SDS011;9435;52.122;5.502;2023-10-13T10:53:02;20.65;;;6.90;;
18610;SDS011;9435;52.122;5.502;2023-10-13T10:55:34;21.50;;;7.93;;
18610;SDS011;9435;52.122;5.502;2023-10-13T10:58:01;18.83;;;7.32;;
18610;SDS011;9435;52.122;5.502;2023-10-13T11:00:34;18.55;;;7.38;;
18610;SDS011;9435;52.122;5.502;2023-10-13T11:03:11;18.17;;;7.60;;
18610;SDS011;9435;52.122;5.502;2023-10-13T11:05:42;19.73;;;7.60;;
18610;SDS011;9435;52.122;5.502;2023-10-13T11:08:22;20.17;;;7.15;;
18610;SDS011;9435;52.122;5.502;2023-10-13T11:10:57;18.83;;;6.78;;
18610;SDS011;9435;52.122;5.502;2023-10-13T11:13:26;22.08;;;7.22;;
18610;SDS011;9435;52.122;5.502;2023-10-13T11:15:56;22.00;;;7.32;;
18610;SDS011;9435;52.122;5.502;2023-10-13T11:18:28;24.75;;;7.00;;
18610;SDS011;9435;52.122;5.502;2023-10-13T11:20:59;22.48;;;7.90;;
18610;SDS011;9435;52.122;5.502;2023-10-13T11:23:31;17.80;;;7.03;;
18610;SDS011;9435;52.122;5.502;2023-10-13T11:26:01;21.23;;;7.60;;
18610;SDS011;9435;52.122;5.502;2023-10-13T11:28:29;19.45;;;7.30;;
18610;SDS011;9435;52.122;5.502;2023-10-13T11:30:59;20.00;;;7.22;;
18610;SDS011;9435;52.122;5.502;2023-10-13T11:33:35;25.88;;;7.55;;
18610;SDS011;9435;52.122;5.502;2023-10-13T11:36:14;22.67;;;7.35;;
18610;SDS011;9435;52.122;5.502;2023-10-13T11:38:44;23.95;;;7.30;;
18610;SDS011;9435;52.122;5.502;2023-10-13T11:41:15;17.30;;;7.00;;
18610;SDS011;9435;52.122;5.502;2023-10-13T11:43:44;20.52;;;7.45;;
18610;SDS011;9435;52.122;5.502;2023-10-13T11:46:27;18.00;;;6.97;;
18610;SDS011;9435;52.122;5.502;2023-10-13T11:49:11;20.05;;;7.28;;
18610;SDS011;9435;52.122;5.502;2023-10-13T11:51:56;20.95;;;7.68;;
18610;SDS011;9435;52.122;5.502;2023-10-13T11:54:35;19.90;;;7.00;;
18610;SDS011;9435;52.122;5.502;2023-10-13T11:57:07;20.13;;;7.50;;
18610;SDS011;9435;52.122;5.502;2023-10-13T11:59:34;22.25;;;7.07;;
18610;SDS011;9435;52.122;5.502;2023-10-13T12:02:10;25.58;;;7.75;;
18610;SDS011;9435;52.122;5.502;2023-10-13T12:04:55;22.55;;;7.40;;
18610;SDS011;9435;52.122;5.502;2023-10-13T12:07:24;18.90;;;7.25;;
18610;SDS011;9435;52.122;5.502;2023-10-13T12:10:09;21.75;;;7.93;;
18610;SDS011;9435;52.122;5.502;2023-10-13T12:12:42;18.67;;;7.03;;
18610;SDS011;9435;52.122;5.502;2023-10-13T12:15:11;23.45;;;7.25;;
18610;SDS011;9435;52.122;5.502;2023-10-13T12:17:59;21.73;;;7.43;;
18610;SDS011;9435;52.122;5.502;2023-10-13T12:20:28;22.45;;;7.32;;
18610;SDS011;9435;52.122;5.502;2023-10-13T12:23:00;21.15;;;7.50;;
18610;SDS011;9435;52.122;5.502;2023-10-13T12:25:42;21.88;;;7.60;;
18610;SDS011;9435;52.122;5.502;2023-10-13T12:28:26;24.70;;;7.50;;
18610;SDS011;9435;52.122;5.502;2023-10-13T12:30:54;27.50;;;7.50;;
18610;SDS011;9435;52.122;5.502;2023-10-13T12:33:24;19.20;;;7.78;;
18610;SDS011;9435;52.122;5.502;2023-10-13T12:35:58;20.73;;;7.50;;
18610;SDS011;9435;52.122;5.502;2023-10-13T12:38:49;22.65;;;7.43;;
18610;SDS011;9435;52.122;5.502;2023-10-13T12:41:35;21.25;;;7.05;;
18610;SDS011;9435;52.122;5.502;2023-10-13T12:44:34;19.98;;;7.28;;
18610;SDS011;9435;52.122;5.502;2023-10-13T12:47:18;18.73;;;7.15;;
18610;SDS011;9435;52.122;5.502;2023-10-13T12:50:03;23.25;;;7.50;;
18610;SDS011;9435;52.122;5.502;2023-10-13T12:52:59;22.35;;;7.57;;
18610;SDS011;9435;52.122;5.502;2023-10-13T12:55:26;18.95;;;7.45;;
18610;SDS011;9435;52.122;5.502;2023-10-13T12:57:55;22.38;;;7.13;;
18610;SDS011;9435;52.122;5.502;2023-10-13T13:00:22;21.25;;;7.35;;
18610;SDS011;9435;52.122;5.502;2023-10-13T13:02:51;21.50;;;7.35;;
18610;SDS011;9435;52.122;5.502;2023-10-13T13:05:21;21.75;;;6.88;;
18610;SDS011;9435;52.122;5.502;2023-10-13T13:07:54;23.00;;;7.43;;
18610;SDS011;9435;52.122;5.502;2023-10-13T13:10:21;28.58;;;7.05;;
18610;SDS011;9435;52.122;5.502;2023-10-13T13:13:05;22.33;;;7.40;;
18610;SDS011;9435;52.122;5.502;2023-10-13T13:15:34;20.55;;;7.10;;
18610;SDS011;9435;52.122;5.502;2023-10-13T13:18:01;23.73;;;7.20;;
18610;SDS011;9435;52.122;5.502;2023-10-13T13:20:35;23.55;;;7.28;;
18610;SDS011;9435;52.122;5.502;2023-10-13T13:23:04;20.98;;;7.60;;
18610;SDS011;9435;52.122;5.502;2023-10-13T13:25:31;22.98;;;7.50;;
18610;SDS011;9435;52.122;5.502;2023-10-13T13:27:59;23.00;;;7.60;;
18610;SDS011;9435;52.122;5.502;2023-10-13T13:30:31;19.98;;;7.22;;
18610;SDS011;9435;52.122;5.502;2023-10-13T13:33:00;20.67;;;7.65;;
18610;SDS011;9435;52.122;5.502;2023-10-13T13:35:36;24.15;;;7.78;;
18610;SDS011;9435;52.122;5.502;2023-10-13T13:38:03;19.02;;;7.45;;
18610;SDS011;9435;52.122;5.502;2023-10-13T13:40:36;21.80;;;8.05;;
18610;SDS011;9435;52.122;5.502;2023-10-13T13:43:04;23.10;;;7.88;;
18610;SDS011;9435;52.122;5.502;2023-10-13T13:45:33;22.05;;;8.45;;
18610;SDS011;9435;52.122;5.502;2023-10-13T13:48:06;19.50;;;8.15;;
18610;SDS011;9435;52.122;5.502;2023-10-13T13:50:40;22.02;;;7.82;;
18610;SDS011;9435;52.122;5.502;2023-10-13T13:53:09;18.60;;;8.48;;
18610;SDS011;9435;52.122;5.502;2023-10-13T13:55:36;25.55;;;9.32;;
18610;SDS011;9435;52.122;5.502;2023-10-13T13:58:05;18.67;;;8.48;;
18610;SDS011;9435;52.122;5.502;2023-10-13T14:00:36;20.75;;;8.70;;
18610;SDS011;9435;52.122;5.502;2023-10-13T14:03:07;18.63;;;8.77;;
18610;SDS011;9435;52.122;5.502;2023-10-13T14:05:40;24.33;;;8.77;;
18610;SDS011;9435;52.122;5.502;2023-10-13T14:08:08;23.80;;;8.55;;
18610;SDS011;9435;52.122;5.502;2023-10-13T14:10:37;20.75;;;8.70;;
18610;SDS011;9435;52.122;5.502;2023-10-13T14:13:18;27.13;;;9.05;;
18610;SDS011;9435;52.122;5.502;2023-10-13T14:15:49;24.08;;;8.20;;
18610;SDS011;9435;52.122;5.502;2023-10-13T14:18:21;20.17;;;8.43;;
18610;SDS011;9435;52.122;5.502;2023-10-13T14:20:55;26.35;;;8.95;;
18610;SDS011;9435;52.122;5.502;2023-10-13T14:23:29;21.05;;;8.45;;
18610;SDS011;9435;52.122;5.502;2023-10-13T14:25:56;24.95;;;8.45;;
18610;SDS011;9435;52.122;5.502;2023-10-13T14:28:23;26.63;;;9.25;;
18610;SDS011;9435;52.122;5.502;2023-10-13T14:31:03;22.75;;;8.38;;
18610;SDS011;9435;52.122;5.502;2023-10-13T14:33:34;22.85;;;8.20;;
18610;SDS011;9435;52.122;5.502;2023-10-13T14:36:02;25.20;;;8.50;;
18610;SDS011;9435;52.122;5.502;2023-10-13T14:38:29;26.67;;;8.63;;
18610;SDS011;9435;52.122;5.502;2023-10-13T14:40:56;25.40;;;8.35;;
18610;SDS011;9435;52.122;5.502;2023-10-13T14:43:24;21.33;;;8.07;;
18610;SDS011;9435;52.122;5.502;2023-10-13T14:45:52;18.08;;;8.10;;
18610;SDS011;9435;52.122;5.502;2023-10-13T14:48:20;18.95;;;7.88;;
18610;SDS011;9435;52.122;5.502;2023-10-13T14:50:50;22.35;;;8.25;;
18610;SDS011;9435;52.122;5.502;2023-10-13T14:53:17;20.27;;;7.85;;
18610;SDS011;9435;52.122;5.502;2023-10-13T14:55:47;21.33;;;7.95;;
18610;SDS011;9435;52.122;5.502;2023-10-13T14:58:16;27.65;;;8.38;;
18610;SDS011;9435;52.122;5.502;2023-10-13T15:00:43;19.20;;;7.88;;
18610;SDS011;9435;52.122;5.502;2023-10-13T15:03:11;18.20;;;7.68;;
18610;SDS011;9435;52.122;5.502;2023-10-13T15:05:40;18.35;;;7.95;;
18610;SDS011;9435;52.122;5.502;2023-10-13T15:08:08;21.33;;;8.35;;
18610;SDS011;9435;52.122;5.502;2023-10-13T15:10:35;19.10;;;7.93;;
18610;SDS011;9435;52.122;5.502;2023-10-13T15:13:02;22.98;;;8.13;;
18610;SDS011;9435;52.122;5.502;2023-10-13T15:15:30;21.77;;;8.40;;
18610;SDS011;9435;52.122;5.502;2023-10-13T15:17:57;17.88;;;8.23;;
18610;SDS011;9435;52.122;5.502;2023-10-13T15:20:26;18.75;;;8.20;;
18610;SDS011;9435;52.122;5.502;2023-10-13T15:22:54;25.98;;;9.18;;
18610;SDS011;9435;52.122;5.502;2023-10-13T15:25:25;24.40;;;9.05;;